createdAt,value
2018-07-06T00:00:40.528Z,17.73
2018-07-06T00:01:40.564Z,17.62
2018-07-06T00:02:40.530Z,17.69
2018-07-06T00:03:40.599Z,17.73
2018-07-06T00:04:40.588Z,17.67
2018-07-06T00:05:40.525Z,17.67
2018-07-06T00:06:49.997Z,17.67
2018-07-06T00:08:34.386Z,17.67
2018-07-06T00:09:33.810Z,17.69
2018-07-06T00:11:27.310Z,17.64
2018-07-06T00:12:27.287Z,17.62
2018-07-06T00:13:27.237Z,17.59
2018-07-06T00:14:27.256Z,17.57
2018-07-06T00:15:27.278Z,17.59
2018-07-06T00:16:28.306Z,17.67
2018-07-06T00:17:27.288Z,17.57
2018-07-06T00:18:27.301Z,17.54
2018-07-06T00:19:27.826Z,17.54
2018-07-06T00:20:28.177Z,17.62
2018-07-06T00:21:28.213Z,17.67
2018-07-06T00:22:28.159Z,17.53
2018-07-06T00:23:27.298Z,17.53
2018-07-06T00:24:28.201Z,17.54
2018-07-06T00:25:28.156Z,17.53
2018-07-06T00:26:28.210Z,17.53
2018-07-06T00:27:27.863Z,17.54
2018-07-06T00:28:29.418Z,17.59
2018-07-06T00:29:28.214Z,17.55
2018-07-06T00:30:27.803Z,17.50
2018-07-06T00:31:27.846Z,17.55
2018-07-06T00:32:27.348Z,17.55
2018-07-06T00:33:28.707Z,17.62
2018-07-06T00:34:27.825Z,17.54
2018-07-06T00:35:28.204Z,17.57
2018-07-06T00:36:27.864Z,17.54
2018-07-06T00:37:28.191Z,17.53
2018-07-06T00:38:27.204Z,17.64
2018-07-06T00:39:27.165Z,17.57
2018-07-06T00:40:26.994Z,17.63
2018-07-06T00:41:27.040Z,17.51
2018-07-06T00:42:27.033Z,17.51
2018-07-06T00:43:26.978Z,17.55
2018-07-06T00:44:26.952Z,17.53
2018-07-06T00:45:26.986Z,17.54
2018-07-06T00:46:27.149Z,17.57
2018-07-06T00:47:27.054Z,17.57
2018-07-06T00:48:27.081Z,17.57
2018-07-06T00:49:27.089Z,17.63
2018-07-06T00:50:27.062Z,17.59
2018-07-06T00:51:27.043Z,17.57
2018-07-06T00:52:27.014Z,17.59
2018-07-06T00:53:27.060Z,17.67
2018-07-06T00:54:26.976Z,17.66
2018-07-06T00:55:27.031Z,17.59
2018-07-06T00:56:27.034Z,17.63
2018-07-06T00:57:27.104Z,17.63
2018-07-06T00:58:27.843Z,17.62
2018-07-06T00:59:26.968Z,17.54
2018-07-06T01:00:27.069Z,17.62
2018-07-06T01:01:26.995Z,17.63
2018-07-06T01:02:27.031Z,17.62
2018-07-06T01:03:27.015Z,17.62
2018-07-06T01:04:27.059Z,17.59
2018-07-06T01:05:27.000Z,17.54
2018-07-06T01:06:27.018Z,17.57
2018-07-06T01:07:27.022Z,17.55
2018-07-06T01:08:27.021Z,17.55
2018-07-06T01:09:27.159Z,17.57
2018-07-06T01:10:27.115Z,17.59
2018-07-06T01:11:27.094Z,17.62
2018-07-06T01:12:27.087Z,17.57
2018-07-06T01:13:27.873Z,17.63
2018-07-06T01:14:27.104Z,17.57
2018-07-06T01:15:27.111Z,17.59
2018-07-06T01:16:27.243Z,17.62
2018-07-06T01:17:27.076Z,17.62
2018-07-06T01:18:27.144Z,17.63
2018-07-06T01:19:27.095Z,17.73
2018-07-06T01:20:27.062Z,17.51
2018-07-06T01:21:27.110Z,17.51
2018-07-06T01:22:27.099Z,17.55
2018-07-06T01:23:27.092Z,17.51
2018-07-06T01:24:27.119Z,17.55
2018-07-06T01:25:27.089Z,17.57
2018-07-06T01:26:27.174Z,17.64
2018-07-06T01:27:27.128Z,17.59
2018-07-06T01:28:27.112Z,17.66
2018-07-06T01:29:27.075Z,17.57
2018-07-06T01:30:27.070Z,17.54
2018-07-06T01:31:27.856Z,17.55
2018-07-06T01:32:27.100Z,17.63
2018-07-06T01:33:27.236Z,17.51
2018-07-06T01:34:27.089Z,17.59
2018-07-06T01:35:27.074Z,17.59
2018-07-06T01:36:27.319Z,17.55
2018-07-06T01:37:27.074Z,17.59
2018-07-06T01:38:27.105Z,17.47
2018-07-06T01:39:27.098Z,17.64
2018-07-06T01:40:27.209Z,17.44
2018-07-06T01:41:27.153Z,17.46
2018-07-06T01:42:27.159Z,17.50
2018-07-06T01:43:27.193Z,17.50
2018-07-06T01:44:27.173Z,17.50
2018-07-06T01:45:27.255Z,17.41
2018-07-06T01:46:27.139Z,17.41
2018-07-06T01:47:27.136Z,17.46
2018-07-06T01:48:27.167Z,17.36
2018-07-06T01:49:27.164Z,17.32
2018-07-06T01:50:27.161Z,17.36
2018-07-06T01:51:27.149Z,17.30
2018-07-06T01:52:27.136Z,17.33
2018-07-06T01:53:27.231Z,17.36
2018-07-06T01:54:27.151Z,17.28
2018-07-06T01:55:27.134Z,17.28
2018-07-06T01:56:27.135Z,17.20
2018-07-06T01:57:27.157Z,17.32
2018-07-06T01:58:27.192Z,17.29
2018-07-06T01:59:27.177Z,17.25
2018-07-06T02:00:27.151Z,17.23
2018-07-06T02:01:27.150Z,17.10
2018-07-06T02:02:27.195Z,17.08
2018-07-06T02:03:27.149Z,17.11
2018-07-06T02:04:27.138Z,17.04
2018-07-06T02:05:27.160Z,17.06
2018-07-06T02:06:27.168Z,17.07
2018-07-06T02:07:27.173Z,17.13
2018-07-06T02:08:27.200Z,16.98
2018-07-06T02:09:27.217Z,17.03
2018-07-06T02:10:27.181Z,16.96
2018-07-06T02:11:27.213Z,16.99
2018-07-06T02:12:27.224Z,16.90
2018-07-06T02:13:27.292Z,17.00
2018-07-06T02:14:27.196Z,16.89
2018-07-06T02:15:27.220Z,16.92
2018-07-06T02:16:27.207Z,16.85
2018-07-06T02:17:27.202Z,16.83
2018-07-06T02:18:27.194Z,16.77
2018-07-06T02:19:27.226Z,16.77
2018-07-06T02:20:27.258Z,16.75
2018-07-06T02:21:27.241Z,16.81
2018-07-06T02:22:27.213Z,16.67
2018-07-06T02:23:27.304Z,16.67
2018-07-06T02:24:27.209Z,16.73
2018-07-06T02:25:27.315Z,16.68
2018-07-06T02:26:27.267Z,16.70
2018-07-06T02:27:27.280Z,16.63
2018-07-06T02:28:27.240Z,16.71
2018-07-06T02:29:27.260Z,16.70
2018-07-06T02:30:27.235Z,16.68
2018-07-06T02:31:27.247Z,16.70
2018-07-06T02:32:27.288Z,16.65
2018-07-06T02:33:27.256Z,16.71
2018-07-06T02:34:27.234Z,16.68
2018-07-06T02:35:27.276Z,16.73
2018-07-06T02:36:27.256Z,16.62
2018-07-06T02:37:27.263Z,16.63
2018-07-06T02:38:27.311Z,16.63
2018-07-06T02:39:27.317Z,16.63
2018-07-06T02:40:27.257Z,16.58
2018-07-06T02:41:27.315Z,16.62
2018-07-06T02:42:27.270Z,16.60
2018-07-06T02:43:27.294Z,16.53
2018-07-06T02:44:27.313Z,16.70
2018-07-06T02:45:27.281Z,16.58
2018-07-06T02:46:27.312Z,16.59
2018-07-06T02:47:27.359Z,16.55
2018-07-06T02:48:27.313Z,16.62
2018-07-06T02:49:28.898Z,16.59
2018-07-06T02:50:27.314Z,16.59
2018-07-06T02:51:27.322Z,16.59
2018-07-06T02:52:27.293Z,16.59
2018-07-06T02:53:27.883Z,16.62
2018-07-06T02:54:27.465Z,16.62
2018-07-06T02:55:27.293Z,16.59
2018-07-06T02:56:27.298Z,16.56
2018-07-06T02:57:27.315Z,16.52
2018-07-06T02:58:27.388Z,16.55
2018-07-06T02:59:27.337Z,16.62
2018-07-06T03:00:27.326Z,16.63
2018-07-06T03:01:27.343Z,16.62
2018-07-06T03:02:27.325Z,16.58
2018-07-06T03:03:27.488Z,16.65
2018-07-06T03:04:27.312Z,16.55
2018-07-06T03:05:27.344Z,16.65
2018-07-06T03:06:27.407Z,16.62
2018-07-06T03:07:27.350Z,16.65
2018-07-06T03:08:27.311Z,16.58
2018-07-06T03:09:27.397Z,16.62
2018-07-06T03:10:27.465Z,16.58
2018-07-06T03:11:27.401Z,16.63
2018-07-06T03:12:27.363Z,16.56
2018-07-06T03:13:27.395Z,16.59
2018-07-06T03:14:27.389Z,16.58
2018-07-06T03:15:27.383Z,16.55
2018-07-06T03:16:27.332Z,16.58
2018-07-06T03:17:28.420Z,16.53
2018-07-06T03:18:27.413Z,16.62
2018-07-06T03:19:27.371Z,16.62
2018-07-06T03:20:27.402Z,16.55
2018-07-06T03:21:27.385Z,16.56
2018-07-06T03:22:35.505Z,16.58
2018-07-06T03:24:22.730Z,16.68
2018-07-06T03:25:22.201Z,16.60
2018-07-06T03:27:16.032Z,16.71
2018-07-06T03:28:15.626Z,16.67
2018-07-06T03:30:09.483Z,16.70
2018-07-06T03:31:09.447Z,16.68
2018-07-06T03:33:01.924Z,16.67
2018-07-06T03:34:01.380Z,16.68
2018-07-06T03:35:54.874Z,16.71
2018-07-06T03:36:54.823Z,16.65
2018-07-06T03:38:52.937Z,16.73
2018-07-06T03:39:49.669Z,16.68
2018-07-06T03:41:43.599Z,16.73
2018-07-06T03:42:44.096Z,16.63
2018-07-06T03:43:45.628Z,16.77
2018-07-06T03:44:46.721Z,16.70
2018-07-06T03:45:44.523Z,16.77
2018-07-06T03:46:44.529Z,16.71
2018-07-06T03:47:44.579Z,16.81
2018-07-06T03:48:43.613Z,16.83
2018-07-06T03:49:57.165Z,16.80
2018-07-06T03:50:44.649Z,16.77
2018-07-06T03:51:45.170Z,16.78
2018-07-06T03:52:44.643Z,16.83
2018-07-06T03:53:44.626Z,16.77
2018-07-06T03:54:44.134Z,16.80
2018-07-06T03:55:44.117Z,16.80
2018-07-06T03:56:44.152Z,16.80
2018-07-06T03:57:44.543Z,16.86
2018-07-06T03:58:45.158Z,16.80
2018-07-06T03:59:43.942Z,16.80
2018-07-06T04:00:43.295Z,16.81
2018-07-06T04:01:43.220Z,16.80
2018-07-06T04:02:43.203Z,16.83
2018-07-06T04:03:43.230Z,16.81
2018-07-06T04:04:43.223Z,16.85
2018-07-06T04:05:43.220Z,16.86
2018-07-06T04:06:43.295Z,16.93
2018-07-06T04:07:43.196Z,16.89
2018-07-06T04:08:43.239Z,16.88
2018-07-06T04:09:43.241Z,16.85
2018-07-06T04:10:43.190Z,16.93
2018-07-06T04:11:43.214Z,16.83
2018-07-06T04:12:43.301Z,16.85
2018-07-06T04:13:43.255Z,16.86
2018-07-06T04:14:43.260Z,16.85
2018-07-06T04:15:43.349Z,16.78
2018-07-06T04:16:45.395Z,16.78
2018-07-06T04:17:45.265Z,16.78
2018-07-06T04:18:46.211Z,16.78
2018-07-06T04:19:43.254Z,16.70
2018-07-06T04:20:46.248Z,16.81
2018-07-06T04:21:43.235Z,16.85
2018-07-06T04:22:43.239Z,16.77
2018-07-06T04:23:43.349Z,16.77
2018-07-06T04:24:43.285Z,16.80
2018-07-06T04:25:43.240Z,16.77
2018-07-06T04:26:45.172Z,16.77
2018-07-06T04:27:45.222Z,16.77
2018-07-06T04:28:43.402Z,16.63
2018-07-06T04:29:43.278Z,16.75
2018-07-06T04:30:43.312Z,16.59
2018-07-06T04:31:43.387Z,16.60
2018-07-06T04:32:43.431Z,16.68
2018-07-06T04:33:45.303Z,16.62
2018-07-06T04:34:43.444Z,16.55
2018-07-06T04:35:43.297Z,16.70
2018-07-06T04:36:43.396Z,16.65
2018-07-06T04:37:43.366Z,16.62
2018-07-06T04:38:43.397Z,16.65
2018-07-06T04:39:43.373Z,16.62
2018-07-06T04:40:43.294Z,16.73
2018-07-06T04:41:43.458Z,16.73
2018-07-06T04:42:43.340Z,16.67
2018-07-06T04:43:45.335Z,16.67
2018-07-06T04:44:45.375Z,16.71
2018-07-06T04:45:43.359Z,16.68
2018-07-06T04:46:43.530Z,16.70
2018-07-06T04:47:43.493Z,16.71
2018-07-06T04:48:45.403Z,16.71
2018-07-06T04:49:43.375Z,16.73
2018-07-06T04:50:43.470Z,16.86
2018-07-06T04:51:43.435Z,16.85
2018-07-06T04:52:43.468Z,16.75
2018-07-06T04:53:43.416Z,16.77
2018-07-06T04:54:43.507Z,16.78
2018-07-06T04:55:43.427Z,16.80
2018-07-06T04:56:44.430Z,16.78
2018-07-06T04:57:45.324Z,16.81
2018-07-06T04:58:43.476Z,16.88
2018-07-06T04:59:43.463Z,16.85
2018-07-06T05:00:43.399Z,16.83
2018-07-06T05:01:43.426Z,16.80
2018-07-06T05:02:46.390Z,16.85
2018-07-06T05:03:43.391Z,16.77
2018-07-06T05:04:43.464Z,16.74
2018-07-06T05:05:45.214Z,16.78
2018-07-06T05:08:25.366Z,16.98
2018-07-06T05:09:25.790Z,16.81
2018-07-06T05:10:26.291Z,16.86
2018-07-06T05:11:26.451Z,16.86
2018-07-06T05:12:26.434Z,16.83
2018-07-06T05:13:25.827Z,16.96
2018-07-06T05:14:25.826Z,16.86
2018-07-06T05:15:25.392Z,17.03
2018-07-06T05:16:25.805Z,16.99
2018-07-06T05:17:25.402Z,17.13
2018-07-06T05:18:26.364Z,17.08
2018-07-06T05:19:25.834Z,17.23
2018-07-06T05:20:26.319Z,17.22
2018-07-06T05:21:26.287Z,17.35
2018-07-06T05:22:24.817Z,17.30
2018-07-06T05:23:25.306Z,17.35
2018-07-06T05:24:25.421Z,17.18
2018-07-06T05:25:28.345Z,17.23
2018-07-06T05:26:25.788Z,17.40
2018-07-06T05:27:24.560Z,17.46
2018-07-06T05:28:26.441Z,17.44
2018-07-06T05:29:24.445Z,17.59
2018-07-06T05:30:24.483Z,17.54
2018-07-06T05:31:26.450Z,17.51
2018-07-06T05:32:24.439Z,17.55
2018-07-06T05:33:24.464Z,17.54
2018-07-06T05:34:24.454Z,17.69
2018-07-06T05:35:24.482Z,17.64
2018-07-06T05:36:25.031Z,17.62
2018-07-06T05:37:24.567Z,17.78
2018-07-06T05:38:24.492Z,17.85
2018-07-06T05:39:24.446Z,17.84
2018-07-06T05:40:24.478Z,17.94
2018-07-06T05:41:24.474Z,17.94
2018-07-06T05:42:27.449Z,17.88
2018-07-06T05:43:26.456Z,17.88
2018-07-06T05:44:24.515Z,18.03
2018-07-06T05:45:26.521Z,17.89
2018-07-06T05:46:24.521Z,18.06
2018-07-06T05:47:26.419Z,18.17
2018-07-06T05:48:24.544Z,18.21
2018-07-06T05:49:24.552Z,18.24
2018-07-06T05:50:24.540Z,18.36
2018-07-06T05:51:24.500Z,18.28
2018-07-06T05:52:24.522Z,18.42
2018-07-06T05:53:24.519Z,18.42
2018-07-06T05:54:24.529Z,18.39
2018-07-06T05:55:24.522Z,18.44
2018-07-06T05:56:27.432Z,18.44
2018-07-06T05:57:24.569Z,18.44
2018-07-06T05:58:24.540Z,18.44
2018-07-06T05:59:24.541Z,18.54
2018-07-06T06:00:24.514Z,18.62
2018-07-06T06:01:24.520Z,18.65
2018-07-06T06:02:24.524Z,18.62
2018-07-06T06:03:24.560Z,18.49
2018-07-06T06:04:24.529Z,18.59
2018-07-06T06:05:24.569Z,18.64
2018-07-06T06:06:24.543Z,18.59
2018-07-06T06:07:24.543Z,18.77
2018-07-06T06:08:24.582Z,18.72
2018-07-06T06:09:24.553Z,18.70
2018-07-06T06:10:24.587Z,18.83
2018-07-06T06:11:24.559Z,18.87
2018-07-06T06:12:24.562Z,19.01
2018-07-06T06:13:24.570Z,19.02
2018-07-06T06:14:24.572Z,19.13
2018-07-06T06:15:24.594Z,19.02
2018-07-06T06:16:24.578Z,19.08
2018-07-06T06:17:24.585Z,19.15
2018-07-06T06:18:24.603Z,19.21
2018-07-06T06:19:24.594Z,19.23
2018-07-06T06:20:24.601Z,19.38
2018-07-06T06:21:24.605Z,19.36
2018-07-06T06:22:24.661Z,19.29
2018-07-06T06:23:24.608Z,19.48
2018-07-06T06:24:24.648Z,19.42
2018-07-06T06:25:24.615Z,19.47
2018-07-06T06:26:24.621Z,19.57
2018-07-06T06:27:26.403Z,19.94
2018-07-06T06:28:24.664Z,19.94
2018-07-06T06:29:24.642Z,19.86
2018-07-06T06:30:24.660Z,20.35
2018-07-06T06:31:24.661Z,20.91
2018-07-06T06:32:24.671Z,21.04
2018-07-06T06:33:24.829Z,20.77
2018-07-06T06:34:24.661Z,21.76
2018-07-06T06:35:24.684Z,22.57
2018-07-06T06:36:24.673Z,23.24
2018-07-06T06:37:24.685Z,23.70
2018-07-06T06:38:24.676Z,23.57
2018-07-06T06:39:24.694Z,23.07
2018-07-06T06:40:24.690Z,23.40
2018-07-06T06:41:24.723Z,23.31
2018-07-06T06:42:24.716Z,23.87
2018-07-06T06:43:24.699Z,24.20
2018-07-06T06:44:24.701Z,24.56
2018-07-06T06:45:24.716Z,24.41
2018-07-06T06:46:24.717Z,24.52
2018-07-06T06:47:24.729Z,24.97
2018-07-06T06:48:24.817Z,24.95
2018-07-06T06:49:24.740Z,24.76
2018-07-06T06:50:24.735Z,24.19
2018-07-06T06:51:24.767Z,23.87
2018-07-06T06:52:24.777Z,23.08
2018-07-06T06:53:24.790Z,22.72
2018-07-06T06:54:24.793Z,23.04
2018-07-06T06:55:26.410Z,22.75
2018-07-06T06:56:24.776Z,22.74
2018-07-06T06:57:24.813Z,22.06
2018-07-06T06:58:24.818Z,21.60
2018-07-06T06:59:24.804Z,21.90
2018-07-06T07:00:27.534Z,22.12
2018-07-06T07:01:26.446Z,23.04
2018-07-06T07:02:24.811Z,23.68
2018-07-06T07:03:26.413Z,23.58
2018-07-06T07:04:26.447Z,23.42
2018-07-06T07:05:26.414Z,23.64
2018-07-06T07:06:24.837Z,24.19
2018-07-06T07:07:24.894Z,24.79
2018-07-06T07:08:24.847Z,25.06
2018-07-06T07:09:24.858Z,24.80
2018-07-06T07:10:24.861Z,24.34
2018-07-06T07:11:24.918Z,24.01
2018-07-06T07:12:24.875Z,23.92
2018-07-06T07:13:24.890Z,23.98
2018-07-06T07:14:24.898Z,24.02
2018-07-06T07:15:25.014Z,23.24
2018-07-06T07:16:26.452Z,22.64
2018-07-06T07:17:24.910Z,22.13
2018-07-06T07:18:24.916Z,22.02
2018-07-06T07:19:24.919Z,22.60
2018-07-06T07:20:26.419Z,23.38
2018-07-06T07:21:24.933Z,23.38
2018-07-06T07:22:24.961Z,23.53
2018-07-06T07:23:24.942Z,23.87
2018-07-06T07:24:24.970Z,24.05
2018-07-06T07:25:24.999Z,24.26
2018-07-06T07:26:26.229Z,24.53
2018-07-06T07:27:24.969Z,24.57
2018-07-06T07:28:24.977Z,24.82
2018-07-06T07:29:25.019Z,24.94
2018-07-06T07:30:25.018Z,25.34
2018-07-06T07:31:25.004Z,25.42
2018-07-06T07:32:25.060Z,25.44
2018-07-06T07:33:25.117Z,25.64
2018-07-06T07:34:25.052Z,25.74
2018-07-06T07:35:25.055Z,26.01
2018-07-06T07:36:25.038Z,26.04
2018-07-06T07:37:25.051Z,26.02
2018-07-06T07:38:25.050Z,25.99
2018-07-06T07:39:25.063Z,25.84
2018-07-06T07:40:25.101Z,25.68
2018-07-06T07:41:25.094Z,25.82
2018-07-06T07:42:25.186Z,25.61
2018-07-06T07:43:25.105Z,25.62
2018-07-06T07:44:25.126Z,25.49
2018-07-06T07:45:25.107Z,25.15
2018-07-06T07:46:25.143Z,25.00
2018-07-06T07:47:25.151Z,24.76
2018-07-06T07:48:25.132Z,24.61
2018-07-06T07:49:25.265Z,24.92
2018-07-06T07:50:25.210Z,25.38
2018-07-06T07:51:25.998Z,25.54
2018-07-06T07:52:25.217Z,25.54
2018-07-06T07:53:25.237Z,25.44
2018-07-06T07:54:25.236Z,25.39
2018-07-06T07:55:25.250Z,25.16
2018-07-06T07:56:25.262Z,25.12
2018-07-06T07:57:25.269Z,25.19
2018-07-06T07:58:25.253Z,25.12
2018-07-06T07:59:25.265Z,25.02
2018-07-06T08:00:25.345Z,24.80
2018-07-06T08:01:25.442Z,24.64
2018-07-06T08:02:25.310Z,24.39
2018-07-06T08:03:25.291Z,24.17
2018-07-06T08:04:25.354Z,24.02
2018-07-06T08:05:25.358Z,23.94
2018-07-06T08:06:25.390Z,23.86
2018-07-06T08:07:25.356Z,24.04
2018-07-06T08:08:25.425Z,24.14
2018-07-06T08:09:25.430Z,24.23
2018-07-06T08:10:25.396Z,24.29
2018-07-06T08:11:25.407Z,24.23
2018-07-06T08:12:25.535Z,23.98
2018-07-06T08:13:25.446Z,23.83
2018-07-06T08:14:25.465Z,23.97
2018-07-06T08:15:25.459Z,23.87
2018-07-06T08:16:25.424Z,24.07
2018-07-06T08:17:25.473Z,24.00
2018-07-06T08:18:28.040Z,24.05
2018-07-06T08:19:25.524Z,24.19
2018-07-06T08:20:25.557Z,24.23
2018-07-06T08:21:25.518Z,24.29
2018-07-06T08:22:25.501Z,24.04
2018-07-06T08:23:25.514Z,24.02
2018-07-06T08:24:25.635Z,23.76
2018-07-06T08:25:25.610Z,23.71
2018-07-06T08:26:25.572Z,23.75
2018-07-06T08:27:25.583Z,23.57
2018-07-06T08:28:25.563Z,23.53
2018-07-06T08:29:25.603Z,23.57
2018-07-06T08:30:25.708Z,23.68
2018-07-06T08:31:25.645Z,23.67
2018-07-06T08:32:25.609Z,23.70
2018-07-06T08:33:25.593Z,23.89
2018-07-06T08:34:25.652Z,23.97
2018-07-06T08:35:25.619Z,24.02
2018-07-06T08:36:25.758Z,24.17
2018-07-06T08:37:25.678Z,24.20
2018-07-06T08:38:25.786Z,24.10
2018-07-06T08:39:25.714Z,24.23
2018-07-06T08:40:25.725Z,24.56
2018-07-06T08:41:25.724Z,24.73
2018-07-06T08:42:25.734Z,24.59
2018-07-06T08:43:25.761Z,24.56
2018-07-06T08:44:26.736Z,24.57
2018-07-06T08:45:25.800Z,24.56
2018-07-06T08:46:25.826Z,24.47
2018-07-06T08:47:25.780Z,24.49
2018-07-06T08:48:25.832Z,24.45
2018-07-06T08:49:25.800Z,24.39
2018-07-06T08:50:25.862Z,24.32
2018-07-06T08:51:25.911Z,24.23
2018-07-06T08:52:25.838Z,24.19
2018-07-06T08:53:25.866Z,24.14
2018-07-06T08:54:25.869Z,24.13
2018-07-06T08:55:25.922Z,24.02
2018-07-06T08:56:25.956Z,23.89
2018-07-06T08:57:26.193Z,23.97
2018-07-06T08:58:25.942Z,24.00
2018-07-06T08:59:25.929Z,24.12
2018-07-06T09:00:25.930Z,24.12
2018-07-06T09:01:25.963Z,24.23
2018-07-06T09:02:25.992Z,24.32
2018-07-06T09:03:25.980Z,24.38
2018-07-06T09:04:26.154Z,24.57
2018-07-06T09:05:26.019Z,24.54
2018-07-06T09:06:26.008Z,24.61
2018-07-06T09:07:26.057Z,24.23
2018-07-06T09:08:26.036Z,23.97
2018-07-06T09:09:26.092Z,23.60
2018-07-06T09:10:26.048Z,23.42
2018-07-06T09:11:26.090Z,23.29
2018-07-06T09:12:26.067Z,23.22
2018-07-06T09:13:26.073Z,23.35
2018-07-06T09:14:26.092Z,23.52
2018-07-06T09:15:26.069Z,23.62
2018-07-06T09:16:26.128Z,23.79
2018-07-06T09:17:26.117Z,24.01
2018-07-06T09:18:26.148Z,23.98
2018-07-06T09:19:26.307Z,23.80
2018-07-06T09:20:26.111Z,23.92
2018-07-06T09:21:26.124Z,24.01
2018-07-06T09:22:26.168Z,24.05
2018-07-06T09:23:26.142Z,23.95
2018-07-06T09:24:26.185Z,23.85
2018-07-06T09:25:26.282Z,23.90
2018-07-06T09:26:26.198Z,24.17
2018-07-06T09:27:26.197Z,24.23
2018-07-06T09:28:26.234Z,24.27
2018-07-06T09:29:26.493Z,24.38
2018-07-06T09:30:26.204Z,24.52
2018-07-06T09:31:26.231Z,24.69
2018-07-06T09:32:26.217Z,24.69
2018-07-06T09:33:26.227Z,24.82
2018-07-06T09:34:26.275Z,24.85
2018-07-06T09:35:26.245Z,24.82
2018-07-06T09:36:26.273Z,24.90
2018-07-06T09:37:26.269Z,24.87
2018-07-06T09:38:26.294Z,24.79
2018-07-06T09:39:26.303Z,24.75
2018-07-06T09:40:26.314Z,24.80
2018-07-06T09:41:26.305Z,23.87
2018-07-06T09:42:26.328Z,23.90
2018-07-06T09:43:26.368Z,24.22
2018-07-06T09:44:26.348Z,24.10
2018-07-06T09:45:27.366Z,24.19
2018-07-06T09:46:26.329Z,24.19
2018-07-06T09:47:26.366Z,24.39
2018-07-06T09:48:27.972Z,24.53
2018-07-06T09:49:26.377Z,24.57
2018-07-06T09:50:26.383Z,24.76
2018-07-06T09:51:26.395Z,24.82
2018-07-06T09:52:26.419Z,24.88
2018-07-06T09:53:26.388Z,25.05
2018-07-06T09:54:26.410Z,25.02
2018-07-06T09:55:26.445Z,24.94
2018-07-06T09:56:26.462Z,24.85
2018-07-06T09:57:27.974Z,24.88
2018-07-06T09:58:26.471Z,24.97
2018-07-06T09:59:26.456Z,25.10
2018-07-06T10:00:26.991Z,25.13
2018-07-06T10:01:26.998Z,25.15
2018-07-06T10:02:26.453Z,25.01
2018-07-06T10:03:26.482Z,25.05
2018-07-06T10:04:26.514Z,25.12
2018-07-06T10:05:26.514Z,25.27
2018-07-06T10:06:26.511Z,25.42
2018-07-06T10:07:26.658Z,25.30
2018-07-06T10:08:26.536Z,25.30
2018-07-06T10:09:26.539Z,25.27
2018-07-06T10:10:26.530Z,25.28
2018-07-06T10:11:26.524Z,25.22
2018-07-06T10:12:26.558Z,24.90
2018-07-06T10:13:26.567Z,24.54
2018-07-06T10:14:26.549Z,24.60
2018-07-06T10:15:26.589Z,24.50
2018-07-06T10:16:26.595Z,24.44
2018-07-06T10:17:26.597Z,24.53
2018-07-06T10:18:28.481Z,24.79
2018-07-06T10:19:26.667Z,24.97
2018-07-06T10:20:26.599Z,25.07
2018-07-06T10:21:26.634Z,25.01
2018-07-06T10:22:26.629Z,25.00
2018-07-06T10:23:26.635Z,25.09
2018-07-06T10:24:26.675Z,25.28
2018-07-06T10:27:21.192Z,25.67
2018-07-06T10:28:21.043Z,25.42
2018-07-06T10:29:21.580Z,25.06
2018-07-06T10:30:29.190Z,25.01
2018-07-06T10:32:48.921Z,24.97
2018-07-06T10:33:49.371Z,25.07
2018-07-06T10:34:49.423Z,25.09
2018-07-06T10:35:50.443Z,25.24
2018-07-06T10:36:48.876Z,25.27
2018-07-06T10:37:48.767Z,25.24
2018-07-06T10:38:49.429Z,25.24
2018-07-06T10:39:48.957Z,25.06
2018-07-06T10:40:49.435Z,24.80
2018-07-06T10:41:50.076Z,24.80
2018-07-06T10:42:48.495Z,24.95
2018-07-06T10:43:48.497Z,25.09
2018-07-06T10:44:48.478Z,25.31
2018-07-06T10:45:48.520Z,25.46
2018-07-06T10:46:48.536Z,25.61
2018-07-06T10:47:48.536Z,25.77
2018-07-06T10:48:48.539Z,25.79
2018-07-06T10:49:48.514Z,25.87
2018-07-06T10:50:49.265Z,25.75
2018-07-06T10:51:50.068Z,25.75
2018-07-06T10:52:48.600Z,25.93
2018-07-06T10:53:48.567Z,25.93
2018-07-06T10:54:48.580Z,26.17
2018-07-06T10:55:49.283Z,26.28
2018-07-06T10:56:48.596Z,26.06
2018-07-06T10:57:48.608Z,26.11
2018-07-06T10:58:48.585Z,26.05
2018-07-06T10:59:48.611Z,26.04
2018-07-06T11:00:48.602Z,26.01
2018-07-06T11:01:48.610Z,26.01
2018-07-06T11:02:48.754Z,25.90
2018-07-06T11:03:48.642Z,25.90
2018-07-06T11:04:48.651Z,25.90
2018-07-06T11:05:50.590Z,25.98
2018-07-06T11:06:50.565Z,26.18
2018-07-06T11:07:48.657Z,26.12
2018-07-06T11:08:49.030Z,26.35
2018-07-06T11:09:48.671Z,26.27
2018-07-06T11:10:48.686Z,26.17
2018-07-06T11:11:48.728Z,26.27
2018-07-06T11:12:49.572Z,26.29
2018-07-06T11:13:48.698Z,26.40
2018-07-06T11:14:48.753Z,26.36
2018-07-06T11:15:48.738Z,26.32
2018-07-06T11:16:51.573Z,26.27
2018-07-06T11:17:56.386Z,26.21
2018-07-06T11:19:45.964Z,26.31
2018-07-06T11:20:43.503Z,26.29
2018-07-06T11:21:44.459Z,26.09
2018-07-06T11:22:42.698Z,26.17
2018-07-06T11:23:45.120Z,26.29
2018-07-06T11:24:43.809Z,26.31
2018-07-06T11:25:42.820Z,26.40
2018-07-06T11:26:42.835Z,26.37
2018-07-06T11:27:42.736Z,26.35
2018-07-06T11:28:44.870Z,26.32
2018-07-06T11:29:42.823Z,25.97
2018-07-06T11:30:42.900Z,25.99
2018-07-06T11:31:44.899Z,26.01
2018-07-06T11:32:42.824Z,26.24
2018-07-06T11:33:51.022Z,26.31
2018-07-06T11:35:52.698Z,26.54
2018-07-06T11:38:57.832Z,26.36
2018-07-06T11:39:57.961Z,26.43
2018-07-06T11:40:58.199Z,26.39
2018-07-06T11:42:05.285Z,26.44
2018-07-06T11:43:52.136Z,26.22
2018-07-06T11:44:51.217Z,26.04
2018-07-06T11:46:48.440Z,25.90
2018-07-06T11:47:47.926Z,25.90
2018-07-06T11:49:58.800Z,26.09
2018-07-06T11:50:51.332Z,26.21
2018-07-06T11:51:44.572Z,26.09
2018-07-06T11:52:43.334Z,26.11
2018-07-06T11:53:53.982Z,26.20
2018-07-06T11:55:39.058Z,26.31
2018-07-06T11:56:38.908Z,26.22
2018-07-06T11:59:13.966Z,26.46
2018-07-06T12:00:22.754Z,26.49
2018-07-06T12:04:46.441Z,26.28
2018-07-06T12:05:31.180Z,26.29
2018-07-06T12:10:48.932Z,26.36
2018-07-06T12:11:27.721Z,26.40
2018-07-06T12:12:28.220Z,26.24
2018-07-06T12:25:41.528Z,26.21
2018-07-06T12:31:12.840Z,26.37
2018-07-06T12:33:42.772Z,26.50
2018-07-06T12:34:41.185Z,26.54
2018-07-06T12:35:41.981Z,26.74
2018-07-06T12:37:02.955Z,26.44
2018-07-06T12:43:20.972Z,26.04
2018-07-06T12:59:02.031Z,27.02
2018-07-06T12:59:14.507Z,27.05
2018-07-06T13:04:37.257Z,26.92
2018-07-06T13:05:10.331Z,26.92
2018-07-06T13:07:41.862Z,26.55
2018-07-06T13:10:45.224Z,26.72
2018-07-06T13:14:23.106Z,27.20
2018-07-06T13:16:17.817Z,27.32
2018-07-06T13:19:23.679Z,27.42
2018-07-06T13:34:31.125Z,26.72
2018-07-06T13:47:27.949Z,27.33
2018-07-06T13:48:36.045Z,27.31
2018-07-06T13:52:29.006Z,27.21
2018-07-06T13:53:28.005Z,27.28
2018-07-06T13:54:29.796Z,27.26
2018-07-06T13:56:47.045Z,26.98
2018-07-06T13:57:19.759Z,27.02
2018-07-06T13:58:19.775Z,27.02
2018-07-06T13:59:21.185Z,26.76
2018-07-06T14:00:19.851Z,26.58
2018-07-06T14:01:19.865Z,26.50
2018-07-06T14:05:05.645Z,26.73
2018-07-06T14:06:03.987Z,26.79
2018-07-06T14:07:58.130Z,26.72
2018-07-06T14:08:57.118Z,26.44
2018-07-06T14:10:49.967Z,26.24
2018-07-06T14:11:49.703Z,26.21
2018-07-06T14:13:42.469Z,26.24
2018-07-06T14:14:42.534Z,26.27
2018-07-06T14:16:35.592Z,26.44
2018-07-06T14:17:35.644Z,26.64
2018-07-06T14:19:28.389Z,26.79
2018-07-06T14:20:28.263Z,26.74
2018-07-06T14:22:21.318Z,26.37
2018-07-06T14:23:21.477Z,26.39
2018-07-06T14:25:14.698Z,26.39
2018-07-06T14:26:14.687Z,26.22
2018-07-06T14:27:14.720Z,26.39
2018-07-06T14:28:14.748Z,26.55
2018-07-06T14:29:14.724Z,26.55
2018-07-06T14:30:14.752Z,26.72
2018-07-06T14:31:15.947Z,26.79
2018-07-06T14:32:15.573Z,26.83
2018-07-06T14:33:14.734Z,26.86
2018-07-06T14:34:14.740Z,26.76
2018-07-06T14:35:14.842Z,26.73
2018-07-06T14:36:14.765Z,26.69
2018-07-06T14:37:14.777Z,26.55
2018-07-06T14:38:14.773Z,26.43
2018-07-06T14:39:14.777Z,26.42
2018-07-06T14:40:14.803Z,26.24
2018-07-06T14:41:14.797Z,26.29
2018-07-06T14:42:14.808Z,26.36
2018-07-06T14:43:14.856Z,26.37
2018-07-06T14:44:14.815Z,26.40
2018-07-06T14:45:15.135Z,26.52
2018-07-06T14:46:14.828Z,26.61
2018-07-06T14:47:14.847Z,26.58
2018-07-06T14:48:14.842Z,26.57
2018-07-06T14:49:14.852Z,26.72
2018-07-06T14:50:14.857Z,26.79
2018-07-06T14:51:14.868Z,26.76
2018-07-06T14:52:15.308Z,26.65